Time;durP1;ratioP1;P1;durP2;ratioP2;P2;SDS_P1;SDS_P2;PMS_P1;PMS_P2;Temp;Humidity;BMP_temperature;BMP_pressure;BME280_temperature;BME280_humidity;BME280_pressure;Samples;Min_cycle;Max_cycle;Signal;HPM_P1;HPM_P2
2022/11/21 00:00:56;;;;;;;3.50;1.40;;;22.50;27.30;;;;;;5038468;28;20148;-71
2022/11/21 00:03:23;;;;;;;1.80;1.20;;;22.50;27.10;;;;;;5041244;28;20116;-69
2022/11/21 00:05:49;;;;;;;7.25;1.60;;;22.50;27.20;;;;;;5039457;28;20074;-72
2022/11/21 00:08:18;;;;;;;3.05;1.50;;;22.50;27.30;;;;;;5041386;28;20070;-70
2022/11/21 00:10:45;;;;;;;4.63;1.50;;;22.40;27.10;;;;;;5040529;28;20084;-70
2022/11/21 00:13:18;;;;;;;3.97;1.85;;;22.20;27.80;;;;;;5045319;28;20089;-69
2022/11/21 00:15:45;;;;;;;6.15;2.10;;;22.10;28.30;;;;;;5038869;28;20139;-71
2022/11/21 00:18:12;;;;;;;7.15;2.10;;;22.00;28.70;;;;;;5035754;28;20074;-69
2022/11/21 00:20:40;;;;;;;6.65;2.72;;;21.90;29.00;;;;;;5039644;28;20070;-71
2022/11/21 00:23:06;;;;;;;5.07;2.42;;;21.80;28.40;;;;;;5040707;28;20081;-70
2022/11/21 00:25:33;;;;;;;10.27;3.08;;;21.60;28.60;;;;;;5038254;28;20066;-70
2022/11/21 00:28:00;;;;;;;7.07;4.30;;;21.50;29.50;;;;;;5031780;28;20082;-70
2022/11/21 00:30:26;;;;;;;12.88;3.72;;;21.40;29.40;;;;;;5040487;28;20145;-70
2022/11/21 00:32:53;;;;;;;8.88;4.15;;;21.30;29.50;;;;;;5040671;28;20154;-71
2022/11/21 00:35:19;;;;;;;12.70;5.60;;;21.20;29.90;;;;;;5035119;28;20176;-69
2022/11/21 00:37:47;;;;;;;15.10;6.55;;;21.10;29.90;;;;;;5045606;28;20513;-69
2022/11/21 00:40:14;;;;;;;11.73;6.68;;;21.00;30.20;;;;;;5044640;28;20062;-71
2022/11/21 00:42:40;;;;;;;17.70;7.85;;;20.90;30.60;;;;;;5044692;28;20097;-73
2022/11/21 00:45:07;;;;;;;18.85;9.35;;;20.80;30.70;;;;;;5040027;28;20085;-70
2022/11/21 00:47:33;;;;;;;28.95;15.35;;;20.60;31.00;;;;;;5044197;28;20073;-70
2022/11/21 00:50:00;;;;;;;29.27;15.75;;;20.40;31.10;;;;;;5044114;28;20096;-68
2022/11/21 00:52:26;;;;;;;33.33;17.83;;;20.30;31.30;;;;;;5044014;28;20069;-71
2022/11/21 00:54:53;;;;;;;35.63;19.33;;;20.30;31.50;;;;;;5038700;28;20547;-72
2022/11/21 00:57:19;;;;;;;37.47;20.50;;;20.10;31.20;;;;;;5041476;28;20089;-69
2022/11/21 00:59:45;;;;;;;38.45;22.50;;;20.00;31.60;;;;;;5044418;28;20523;-74
2022/11/21 01:02:12;;;;;;;41.83;23.35;;;19.80;31.80;;;;;;5040536;28;20144;-69
2022/11/21 01:04:39;;;;;;;42.92;22.90;;;19.70;32.10;;;;;;5047636;28;20081;-70
2022/11/21 01:07:05;;;;;;;37.38;15.80;;;19.60;32.00;;;;;;5021952;28;20077;-71
2022/11/21 01:09:31;;;;;;;33.22;14.85;;;19.60;32.10;;;;;;5039944;28;20093;-73
2022/11/21 01:11:58;;;;;;;29.08;12.95;;;19.50;32.60;;;;;;5043469;28;20074;-67
2022/11/21 01:14:24;;;;;;;26.10;12.15;;;19.40;32.40;;;;;;5045941;28;20700;-72
2022/11/21 01:16:51;;;;;;;28.33;11.18;;;19.20;32.60;;;;;;5037958;28;20073;-69
2022/11/21 01:19:17;;;;;;;70.88;44.35;;;19.10;33.00;;;;;;5040160;28;20062;-71
2022/11/21 01:21:43;;;;;;;62.20;42.88;;;19.00;33.50;;;;;;5033776;28;20090;-69
2022/11/21 01:24:13;;;;;;;42.20;20.38;;;19.00;33.90;;;;;;5040737;28;20073;-67
2022/11/21 01:26:39;;;;;;;42.13;18.70;;;18.90;33.30;;;;;;5042257;28;20172;-71
2022/11/21 01:29:07;;;;;;;46.20;20.92;;;18.80;33.40;;;;;;5039221;28;20085;-71
2022/11/21 01:31:34;;;;;;;37.33;18.55;;;18.70;33.30;;;;;;5041534;28;20077;-68
2022/11/21 01:34:01;;;;;;;32.80;16.23;;;18.60;33.60;;;;;;5036267;28;20070;-72
2022/11/21 01:36:30;;;;;;;35.60;15.50;;;18.40;34.20;;;;;;5046682;28;20078;-71
2022/11/21 01:38:59;;;;;;;36.85;14.45;;;18.30;34.70;;;;;;5043502;28;20076;-71
2022/11/21 01:41:30;;;;;;;28.27;14.40;;;18.20;34.90;;;;;;5036618;28;20090;-69
2022/11/21 01:43:57;;;;;;;43.03;15.10;;;18.10;35.00;;;;;;5035860;28;20108;-69
2022/11/21 01:46:24;;;;;;;40.70;17.27;;;18.00;35.60;;;;;;5037441;28;20098;-70
2022/11/21 01:49:14;;;;;;;38.20;18.60;;;17.90;36.10;;;;;;5043086;28;20074;-69
2022/11/21 01:51:50;;;;;;;42.15;22.38;;;17.70;36.90;;;;;;5039919;28;20168;-69
2022/11/21 01:54:19;;;;;;;46.22;21.85;;;17.70;37.00;;;;;;5037811;28;20081;-69
2022/11/21 01:56:49;;;;;;;39.03;20.48;;;17.60;37.30;;;;;;5031309;28;20090;-70
2022/11/21 01:59:43;;;;;;;53.05;19.17;;;17.60;38.00;;;;;;5039306;28;20072;-71
2022/11/21 02:02:12;;;;;;;44.50;18.80;;;17.50;38.10;;;;;;5039424;28;20470;-68
2022/11/21 02:04:42;;;;;;;36.85;17.20;;;17.40;38.20;;;;;;5045150;28;20077;-70
2022/11/21 02:07:09;;;;;;;39.25;17.92;;;17.20;38.30;;;;;;5038861;28;20159;-68
2022/11/21 02:09:39;;;;;;;43.45;17.35;;;17.20;38.70;;;;;;5052665;28;20124;-68
2022/11/21 02:12:13;;;;;;;33.92;15.43;;;17.10;39.00;;;;;;5029676;28;20082;-70
2022/11/21 02:14:42;;;;;;;37.95;16.88;;;17.00;39.50;;;;;;5039011;28;20107;-70
2022/11/21 02:17:10;;;;;;;37.45;16.45;;;16.90;39.60;;;;;;5034960;28;20100;-69
2022/11/21 02:19:52;;;;;;;36.55;16.52;;;16.90;40.10;;;;;;5029987;28;20077;-68
2022/11/21 02:22:39;;;;;;;45.97;17.80;;;16.80;40.00;;;;;;5031717;28;20557;-69
2022/11/21 02:25:17;;;;;;;44.97;16.67;;;16.80;40.20;;;;;;5031011;28;20081;-68
2022/11/21 02:27:45;;;;;;;35.20;17.70;;;16.70;41.00;;;;;;5037221;28;20127;-74
2022/11/21 02:30:12;;;;;;;41.53;17.48;;;16.60;40.60;;;;;;5039297;28;20085;-67
2022/11/21 02:32:47;;;;;;;39.50;16.83;;;16.50;40.60;;;;;;5038205;28;20076;-69
2022/11/21 02:35:16;;;;;;;36.35;16.08;;;16.50;40.90;;;;;;5043027;28;20092;-68
2022/11/21 02:38:03;;;;;;;47.47;16.95;;;16.40;41.70;;;;;;5040977;28;20153;-67
2022/11/21 02:40:35;;;;;;;44.97;16.05;;;16.40;41.60;;;;;;5040189;28;20575;-68
2022/11/21 02:43:16;;;;;;;36.65;15.32;;;16.30;42.60;;;;;;5040425;28;20082;-70
2022/11/21 02:45:44;;;;;;;47.17;16.80;;;16.30;42.50;;;;;;5043846;28;20521;-70
2022/11/21 02:48:11;;;;;;;44.67;16.48;;;16.30;42.30;;;;;;5041597;28;20074;-69
2022/11/21 02:50:40;;;;;;;40.85;17.30;;;16.20;42.50;;;;;;5040561;28;20081;-73
2022/11/21 02:53:10;;;;;;;49.38;17.92;;;16.00;42.20;;;;;;5043106;28;20156;-70
2022/11/21 02:55:37;;;;;;;51.47;18.30;;;16.00;42.80;;;;;;5042075;28;20074;-69
2022/11/21 02:58:05;;;;;;;45.47;17.08;;;15.90;42.80;;;;;;5041970;28;20085;-69
2022/11/21 03:00:32;;;;;;;45.85;16.90;;;15.90;43.20;;;;;;5036717;28;20077;-70
2022/11/21 03:02:58;;;;;;;38.90;17.15;;;15.90;43.80;;;;;;5036824;28;20124;-69
2022/11/21 03:05:24;;;;;;;;;;;15.90;43.40;;;;;;5037150;28;20078;-66
2022/11/21 03:07:51;;;;;;;37.40;16.73;;;15.80;43.60;;;;;;5040084;28;20386;-70
2022/11/21 03:10:17;;;;;;;;;;;15.80;43.70;;;;;;5041160;28;20153;-68
2022/11/21 03:12:43;;;;;;;43.53;17.50;;;15.70;43.40;;;;;;5042032;28;19960;-70
2022/11/21 03:15:12;;;;;;;45.25;18.63;;;15.70;44.50;;;;;;5039594;28;20101;-68
2022/11/21 03:17:39;;;;;;;59.20;18.40;;;15.70;44.70;;;;;;5042509;28;20070;-69
2022/11/21 03:20:06;;;;;;;47.70;17.95;;;15.70;44.50;;;;;;5042246;28;20131;-70
2022/11/21 03:22:33;;;;;;;57.10;19.27;;;15.60;44.30;;;;;;5042626;28;20068;-69
2022/11/21 03:24:59;;;;;;;;;;;15.60;44.60;;;;;;5041987;28;20551;-69
2022/11/21 03:27:25;;;;;;;58.25;23.58;;;15.50;44.50;;;;;;5037420;28;20422;-69
2022/11/21 03:29:52;;;;;;;;;;;15.40;44.70;;;;;;5040705;28;20077;-70
2022/11/21 03:32:18;;;;;;;65.20;24.80;;;15.30;44.70;;;;;;5040821;28;19976;-68
2022/11/21 03:34:44;;;;;;;;;;;15.40;45.30;;;;;;5039462;28;20180;-68
2022/11/21 03:37:10;;;;;;;67.45;24.48;;;15.30;44.90;;;;;;5041729;28;20486;-69
2022/11/21 03:39:36;;;;;;;;;;;15.20;45.50;;;;;;5037337;28;20098;-71
2022/11/21 03:42:03;;;;;;;62.22;24.45;;;15.30;45.30;;;;;;5041432;28;20357;-69
2022/11/21 03:44:29;;;;;;;53.88;21.85;;;15.20;45.70;;;;;;5040653;28;20081;-70
2022/11/21 03:46:55;;;;;;;;;;;15.20;45.50;;;;;;5034067;28;20085;-68
2022/11/21 03:49:22;;;;;;;68.70;23.58;;;15.10;45.70;;;;;;5041458;28;19957;-71
2022/11/21 03:51:48;;;;;;;;;;;14.90;45.40;;;;;;5036170;28;20549;-70
2022/11/21 03:54:14;;;;;;;69.05;26.05;;;14.90;45.40;;;;;;5042202;28;19980;-71
2022/11/21 03:56:40;;;;;;;;;;;14.90;45.50;;;;;;5038322;28;20098;-69
2022/11/21 03:59:07;;;;;;;77.72;24.50;;;14.90;46.30;;;;;;5037985;28;20001;-70
2022/11/21 04:01:33;;;;;;;77.40;25.10;;;14.80;46.90;;;;;;5040814;28;20094;-68
2022/11/21 04:04:00;;;;;;;61.25;23.52;;;14.90;46.90;;;;;;5040893;28;20078;-70
2022/11/21 04:06:26;;;;;;;;;;;14.80;46.80;;;;;;5036283;28;20159;-70
2022/11/21 04:08:52;;;;;;;69.97;25.52;;;14.80;47.10;;;;;;5040360;28;19988;-70
2022/11/21 04:11:20;;;;;;;;;;;14.80;47.50;;;;;;5044825;28;20458;-69
2022/11/21 04:13:47;;;;;;;72.00;24.63;;;14.60;47.70;;;;;;5041651;28;19991;-69
2022/11/21 04:16:13;;;;;;;;;;;14.70;48.00;;;;;;5043920;28;20073;-71
2022/11/21 04:18:39;;;;;;;53.60;21.75;;;14.70;47.80;;;;;;5044552;28;19987;-69
2022/11/21 04:21:06;;;;;;;;;;;14.60;47.90;;;;;;5043286;28;20576;-70
2022/11/21 04:23:33;;;;;;;49.80;20.80;;;14.50;47.50;;;;;;5042201;28;19962;-68
2022/11/21 04:25:59;;;;;;;68.53;20.90;;;14.40;47.60;;;;;;5041514;28;20115;-69
2022/11/21 04:28:25;;;;;;;;;;;14.30;47.30;;;;;;5046785;28;20096;-69
2022/11/21 04:30:51;;;;;;;56.90;19.77;;;14.30;47.50;;;;;;5043712;28;20330;-71
2022/11/21 04:33:18;;;;;;;;;;;14.20;48.70;;;;;;5049585;28;20105;-67
2022/11/21 04:35:45;;;;;;;54.35;20.75;;;14.30;48.20;;;;;;5045442;28;20009;-70
2022/11/21 04:38:13;;;;;;;59.80;22.42;;;14.30;47.70;;;;;;5046556;28;20073;-70
2022/11/21 04:40:41;;;;;;;67.20;20.77;;;14.20;48.10;;;;;;5041102;28;20069;-73
2022/11/21 04:43:08;;;;;;;54.92;20.95;;;14.10;48.30;;;;;;5042886;28;20160;-69
2022/11/21 04:45:34;;;;;;;;;;;14.10;49.00;;;;;;5042381;28;20077;-69
2022/11/21 04:48:00;;;;;;;62.45;23.42;;;14.10;48.80;;;;;;5045448;28;19957;-71
2022/11/21 04:50:26;;;;;;;;;;;14.00;48.50;;;;;;5045370;28;20074;-70
2022/11/21 04:52:54;;;;;;;63.78;24.27;;;14.00;49.00;;;;;;5046019;28;19961;-69
2022/11/21 04:55:23;;;;;;;65.32;23.88;;;14.00;49.50;;;;;;5040649;28;20085;-69
2022/11/21 04:57:50;;;;;;;69.40;23.42;;;14.00;49.20;;;;;;5044415;28;20550;-70
2022/11/21 05:00:17;;;;;;;61.85;24.75;;;14.00;50.00;;;;;;5043114;28;20077;-70
2022/11/21 05:02:44;;;;;;;60.72;26.38;;;13.90;49.60;;;;;;5045499;28;20566;-70
2022/11/21 05:05:11;;;;;;;66.50;27.52;;;13.90;49.60;;;;;;5041487;28;20832;-69
2022/11/21 05:07:37;;;;;;;71.43;25.23;;;13.80;49.50;;;;;;5041234;28;20109;-69
2022/11/21 05:10:05;;;;;;;75.68;27.65;;;13.90;49.50;;;;;;5031927;28;20601;-71
2022/11/21 05:15:17;;;;;;;72.18;27.15;;;13.90;50.10;;;;;;5049802;28;20601;-69
2022/11/21 05:17:44;;;;;;;69.05;23.63;;;13.80;50.10;;;;;;5039692;28;20081;-70
2022/11/21 05:20:10;;;;;;;;;;;13.80;50.00;;;;;;5041189;28;20074;-72
2022/11/21 05:22:36;;;;;;;69.30;25.15;;;13.70;50.70;;;;;;5039723;28;19965;-70
2022/11/21 05:25:03;;;;;;;;;;;13.60;50.60;;;;;;5039026;28;20145;-70
2022/11/21 05:27:29;;;;;;;73.53;24.30;;;13.50;50.20;;;;;;5039752;28;20047;-70
2022/11/21 05:29:55;;;;;;;;;;;13.40;50.00;;;;;;5043852;28;20074;-70
2022/11/21 05:32:22;;;;;;;70.35;24.08;;;13.50;49.60;;;;;;5041661;28;19958;-74
2022/11/21 05:34:47;;;;;;;;;;;13.50;49.40;;;;;;5039283;28;20129;-70
2022/11/21 05:37:14;;;;;;;70.30;24.63;;;13.40;49.40;;;;;;5041918;28;19969;-71
2022/11/21 05:39:40;;;;;;;67.40;26.10;;;13.30;49.60;;;;;;5046194;28;20096;-71
2022/11/21 05:42:06;;;;;;;;;;;13.30;50.00;;;;;;5043187;28;20543;-70
2022/11/21 05:44:33;;;;;;;68.97;27.10;;;13.30;50.50;;;;;;5044575;28;20354;-69
2022/11/21 05:46:59;;;;;;;;;;;13.30;50.60;;;;;;5039771;28;20074;-69
2022/11/21 05:49:25;;;;;;;71.03;24.70;;;13.30;51.40;;;;;;5041551;28;20522;-73
2022/11/21 05:51:52;;;;;;;73.22;25.70;;;13.30;51.70;;;;;;5036953;28;20100;-71
2022/11/21 05:54:18;;;;;;;;;;;13.20;51.30;;;;;;5043135;28;20083;-69
2022/11/21 05:56:44;;;;;;;61.60;25.38;;;13.20;50.90;;;;;;5041592;28;19980;-71
2022/11/21 05:59:11;;;;;;;71.88;25.77;;;13.10;51.70;;;;;;5029337;28;20097;-69
2022/11/21 06:04:22;;;;;;;85.03;26.65;;;13.00;52.00;;;;;;5041810;28;20585;-68
2022/11/21 06:06:48;;;;;;;;;;;13.00;52.80;;;;;;5032459;28;20089;-69
2022/11/21 06:09:14;;;;;;;64.18;24.05;;;13.00;52.70;;;;;;5029752;28;19981;-68
2022/11/21 06:11:40;;;;;;;;;;;13.00;52.30;;;;;;5032557;28;20074;-69
2022/11/21 06:14:07;;;;;;;79.18;28.80;;;13.00;52.20;;;;;;5042127;28;19985;-69
2022/11/21 06:16:36;;;;;;;73.10;26.23;;;13.00;51.60;;;;;;5046647;28;20078;-69
2022/11/21 06:19:02;;;;;;;82.13;27.10;;;13.00;51.00;;;;;;5039967;28;20081;-66
2022/11/21 06:21:28;;;;;;;;;;;13.00;50.80;;;;;;5041225;28;20550;-71
2022/11/21 06:23:57;;;;;;;76.55;25.17;;;12.90;50.90;;;;;;5039116;28;19962;-68
2022/11/21 06:26:25;;;;;;;83.68;24.98;;;13.00;51.00;;;;;;5044727;28;20138;-68
2022/11/21 06:28:53;;;;;;;93.15;25.38;;;12.90;51.10;;;;;;5040143;28;20528;-71
2022/11/21 06:31:26;;;;;;;82.03;23.80;;;12.90;51.20;;;;;;5041708;28;20070;-71
2022/11/21 06:33:54;;;;;;;81.25;24.77;;;12.90;51.30;;;;;;5041431;28;20147;-64
2022/11/21 06:36:21;;;;;;;70.32;22.13;;;13.00;50.70;;;;;;5042139;28;20074;-65
2022/11/21 06:38:48;;;;;;;60.92;21.50;;;13.00;50.20;;;;;;5043620;28;20065;-66
2022/11/21 06:41:17;;;;;;;69.03;21.50;;;13.00;50.50;;;;;;5034721;28;20090;-66
2022/11/21 06:43:44;;;;;;;66.85;23.42;;;13.00;50.30;;;;;;5040090;28;20077;-65
2022/11/21 06:46:11;;;;;;;61.25;22.15;;;12.90;50.10;;;;;;5042283;28;20439;-65
2022/11/21 06:48:38;;;;;;;67.80;21.75;;;12.80;50.40;;;;;;5041373;28;20070;-65
2022/11/21 06:51:12;;;;;;;79.05;22.45;;;12.80;50.80;;;;;;5043106;28;20085;-67
2022/11/21 06:53:38;;;;;;;66.90;22.58;;;12.90;50.90;;;;;;5040565;28;20172;-65
2022/11/21 06:56:04;;;;;;;;;;;12.90;51.00;;;;;;5038234;28;20476;-65
2022/11/21 06:58:32;;;;;;;71.05;22.25;;;12.80;50.40;;;;;;5042548;28;19957;-66
2022/11/21 07:01:04;;;;;;;70.10;21.85;;;12.70;50.20;;;;;;5040873;28;20098;-65
2022/11/21 07:03:31;;;;;;;70.90;23.20;;;12.70;50.70;;;;;;5039433;28;20124;-66
2022/11/21 07:06:00;;;;;;;68.40;22.35;;;12.70;51.10;;;;;;5037695;28;20077;-66
2022/11/21 07:08:31;;;;;;;79.25;24.90;;;12.80;51.40;;;;;;5041527;28;20078;-67
2022/11/21 07:11:02;;;;;;;90.72;26.30;;;12.70;51.10;;;;;;5040153;28;20073;-65
2022/11/21 07:13:29;;;;;;;85.55;29.48;;;12.60;51.40;;;;;;5040004;28;20450;-65
2022/11/21 07:16:07;;;;;;;80.32;27.63;;;12.60;51.30;;;;;;5038972;28;20074;-67
2022/11/21 07:18:34;;;;;;;80.07;25.65;;;12.60;51.40;;;;;;5044803;28;20115;-66
2022/11/21 07:21:05;;;;;;;78.18;26.38;;;12.50;51.50;;;;;;5040396;28;20409;-66
2022/11/21 07:23:33;;;;;;;78.55;25.13;;;12.60;51.90;;;;;;5034868;28;20124;-68
2022/11/21 07:26:01;;;;;;;75.63;25.20;;;12.50;52.00;;;;;;5043679;28;20151;-68
2022/11/21 07:28:28;;;;;;;96.63;35.65;;;12.50;51.80;;;;;;5036598;28;20559;-66
2022/11/21 07:30:59;;;;;;;76.07;23.52;;;12.50;52.10;;;;;;5038408;28;20276;-68
2022/11/21 07:33:26;;;;;;;91.32;32.50;;;12.50;52.90;;;;;;5034209;28;20082;-66
2022/11/21 07:35:56;;;;;;;85.95;34.78;;;12.40;53.10;;;;;;5047682;28;20066;-64
2022/11/21 07:38:23;;;;;;;96.35;41.40;;;12.40;53.00;;;;;;5048901;28;20070;-67
2022/11/21 07:40:50;;;;;;;109.45;43.63;;;12.30;53.70;;;;;;5033825;28;21068;-66
2022/11/21 07:43:17;;;;;;;91.78;37.85;;;12.20;53.40;;;;;;5033273;28;20180;-66
2022/11/21 07:45:44;;;;;;;89.47;35.33;;;12.20;53.30;;;;;;5040402;28;20102;-66
2022/11/21 07:48:11;;;;;;;68.47;26.88;;;12.20;53.70;;;;;;5029914;28;20078;-66
2022/11/21 07:50:38;;;;;;;69.13;23.27;;;12.20;53.20;;;;;;5029539;28;20590;-67
2022/11/21 07:53:06;;;;;;;61.30;21.38;;;12.20;52.30;;;;;;5043350;28;20073;-66
2022/11/21 07:55:36;;;;;;;52.78;16.55;;;12.10;51.20;;;;;;5045233;28;20188;-66
2022/11/21 07:58:06;;;;;;;;;;;12.10;50.20;;;;;;5030707;28;20074;-67
2022/11/21 08:00:34;;;;;;;44.70;13.50;;;12.10;48.30;;;;;;5045920;28;19958;-66
2022/11/21 08:03:02;;;;;;;34.42;11.82;;;12.10;48.50;;;;;;5033888;28;20114;-66
2022/11/21 08:05:29;;;;;;;44.58;11.38;;;12.20;48.10;;;;;;5048009;28;20132;-66
2022/11/21 08:07:55;;;;;;;;;;;12.20;48.10;;;;;;5035471;28;20070;-68
2022/11/21 08:10:21;;;;;;;33.72;11.13;;;12.20;47.90;;;;;;5040182;28;19964;-67
2022/11/21 08:12:47;;;;;;;33.17;9.75;;;12.30;47.20;;;;;;5041645;28;20062;-67
2022/11/21 08:15:17;;;;;;;26.83;8.75;;;12.30;45.80;;;;;;5034949;28;21266;-66
2022/11/21 08:17:43;;;;;;;31.80;8.15;;;12.30;44.70;;;;;;5033200;28;20193;-69
2022/11/21 08:20:10;;;;;;;;;;;12.30;44.90;;;;;;5039930;28;20435;-66
2022/11/21 08:22:40;;;;;;;26.40;7.87;;;12.30;44.70;;;;;;5041186;28;19965;-66
2022/11/21 08:25:08;;;;;;;27.83;7.25;;;12.20;45.60;;;;;;5042975;28;20127;-69
2022/11/21 08:27:37;;;;;;;21.58;7.50;;;12.20;44.60;;;;;;5036106;28;20489;-66
2022/11/21 08:30:06;;;;;;;18.80;7.85;;;12.30;44.50;;;;;;5044304;28;20581;-67
2022/11/21 08:32:33;;;;;;;19.42;6.10;;;12.20;43.70;;;;;;5037566;28;20111;-67
2022/11/21 08:34:59;;;;;;;;;;;12.20;41.90;;;;;;5042561;28;20083;-66
2022/11/21 08:37:29;;;;;;;17.67;4.80;;;12.20;40.90;;;;;;5039447;28;19962;-67
2022/11/21 08:39:59;;;;;;;11.85;4.40;;;12.30;40.60;;;;;;5036616;28;20542;-67
2022/11/21 08:42:26;;;;;;;16.60;4.20;;;12.30;41.10;;;;;;5042978;28;20086;-67
2022/11/21 08:44:52;;;;;;;13.95;4.53;;;12.40;39.90;;;;;;5036319;28;20423;-66
2022/11/21 08:47:19;;;;;;;7.00;3.97;;;12.40;39.20;;;;;;5037312;28;20077;-67
2022/11/21 08:49:46;;;;;;;13.27;4.00;;;12.40;38.80;;;;;;5040721;28;20163;-65
2022/11/21 08:52:13;;;;;;;11.07;3.30;;;12.50;38.90;;;;;;5038722;28;20079;-66
2022/11/21 08:54:40;;;;;;;13.50;2.28;;;12.40;39.00;;;;;;5044407;28;20089;-68
2022/11/21 08:57:06;;;;;;;10.27;2.42;;;12.40;38.50;;;;;;5038564;28;20080;-69
2022/11/21 08:59:32;;;;;;;;;;;12.50;38.80;;;;;;5041489;28;20077;-66
2022/11/21 09:01:59;;;;;;;7.10;2.25;;;12.40;39.70;;;;;;5044822;28;19984;-69
2022/11/21 09:04:25;;;;;;;;;;;12.40;40.00;;;;;;5033553;28;20089;-66
2022/11/21 09:06:51;;;;;;;7.93;2.28;;;12.40;41.00;;;;;;5038950;28;19997;-66
2022/11/21 09:09:17;;;;;;;;;;;12.20;40.20;;;;;;5041660;28;20089;-66
2022/11/21 09:11:43;;;;;;;18.33;3.25;;;12.20;40.40;;;;;;5047877;28;20418;-65
2022/11/21 09:19:39;;;;;;;16.48;4.53;;;12.00;41.20;;;;;;5043385;28;20072;-67
2022/11/21 09:22:05;;;;;;;;;;;12.00;42.00;;;;;;5041372;28;20156;-68
2022/11/21 09:24:31;;;;;;;14.07;5.20;;;11.90;42.20;;;;;;5040941;28;20053;-69
2022/11/21 09:26:58;;;;;;;20.90;7.53;;;12.00;41.40;;;;;;5043034;28;20131;-67
2022/11/21 09:29:25;;;;;;;22.25;6.25;;;11.90;42.10;;;;;;5045671;28;20105;-70
2022/11/21 09:31:51;;;;;;;;;;;11.90;41.80;;;;;;5041925;28;20066;-70
2022/11/21 09:34:18;;;;;;;12.45;3.92;;;11.90;41.30;;;;;;5045059;28;19981;-69
2022/11/21 09:36:45;;;;;;;8.63;3.78;;;11.90;41.30;;;;;;5044555;28;20077;-69
2022/11/21 09:39:11;;;;;;;13.43;4.45;;;11.90;41.10;;;;;;5041476;28;20070;-66
2022/11/21 09:41:53;;;;;;;8.13;3.47;;;11.90;40.50;;;;;;5042233;28;20065;-70
2022/11/21 09:44:38;;;;;;;8.35;3.42;;;11.90;39.80;;;;;;5045014;28;20074;-68
2022/11/21 09:47:24;;;;;;;8.05;3.30;;;12.00;39.50;;;;;;5044314;28;20172;-70
2022/11/21 09:50:01;;;;;;;10.68;3.45;;;12.00;40.30;;;;;;5037382;28;20539;-70
2022/11/21 09:52:36;;;;;;;5.47;2.75;;;12.00;40.00;;;;;;5041079;28;20164;-68
2022/11/21 09:55:06;;;;;;;5.03;2.65;;;12.00;39.90;;;;;;5040159;28;20085;-69
2022/11/21 09:57:35;;;;;;;7.97;2.90;;;12.00;39.70;;;;;;5040691;28;20074;-70
2022/11/21 10:00:12;;;;;;;8.15;2.63;;;12.00;39.70;;;;;;5045071;28;20062;-69
2022/11/21 10:02:38;;;;;;;;;;;12.10;40.00;;;;;;5042384;28;20107;-68
2022/11/21 10:05:12;;;;;;;10.53;4.23;;;12.30;40.40;;;;;;5042553;28;19957;-68
2022/11/21 10:07:40;;;;;;;12.38;3.75;;;12.30;40.20;;;;;;5043895;28;20302;-68
2022/11/21 10:10:19;;;;;;;8.02;3.20;;;12.50;40.70;;;;;;5036624;28;20080;-68
2022/11/21 10:13:14;;;;;;;10.57;3.70;;;12.40;41.10;;;;;;5042185;28;20188;-66
2022/11/21 10:15:48;;;;;;;9.43;3.60;;;12.40;41.70;;;;;;5044365;28;20411;-67
2022/11/21 10:18:27;;;;;;;6.90;4.10;;;12.30;41.70;;;;;;5042382;28;20203;-68
2022/11/21 10:21:10;;;;;;;9.90;3.78;;;12.40;42.70;;;;;;5042784;28;20074;-69
2022/11/21 10:24:03;;;;;;;13.30;4.60;;;12.50;42.60;;;;;;5040757;28;20415;-68
2022/11/21 10:26:41;;;;;;;15.90;4.35;;;12.70;40.70;;;;;;5044281;28;20474;-68
2022/11/21 10:29:43;;;;;;;11.32;4.20;;;12.70;40.10;;;;;;5029642;28;20466;-69
2022/11/21 10:32:36;;;;;;;13.68;4.60;;;12.70;39.10;;;;;;5037488;28;20192;-68
2022/11/21 10:35:18;;;;;;;16.90;5.22;;;12.80;38.60;;;;;;5040938;28;20450;-68
2022/11/21 10:37:58;;;;;;;10.18;4.30;;;12.80;38.90;;;;;;5044172;28;20558;-69
2022/11/21 10:40:50;;;;;;;7.97;3.42;;;12.70;39.30;;;;;;5047050;28;20122;-67
2022/11/21 10:46:30;;;;;;;19.60;3.65;;;12.50;40.70;;;;;;5043395;28;20077;-68
2022/11/21 10:48:58;;;;;;;;;;;12.40;41.10;;;;;;5036597;28;20502;-68
2022/11/21 10:52:01;;;;;;;15.57;3.50;;;12.30;41.40;;;;;;5037273;28;19965;-68
2022/11/21 10:54:33;;;;;;;13.30;4.20;;;12.20;42.00;;;;;;5040779;28;20550;-68
2022/11/21 10:57:07;;;;;;;7.47;3.38;;;12.10;41.90;;;;;;5039736;28;20094;-68
2022/11/21 10:59:33;;;;;;;6.78;3.92;;;12.00;42.00;;;;;;5036599;28;20066;-68
2022/11/21 11:02:21;;;;;;;;;;;11.90;41.70;;;;;;5040650;28;20510;-68
2022/11/21 11:05:17;;;;;;;12.88;8.73;;;11.90;43.40;;;;;;5041956;28;19978;-68
2022/11/21 11:08:11;;;;;;;10.07;2.92;;;11.90;42.30;;;;;;5039148;28;20078;-67
2022/11/21 11:10:59;;;;;;;11.65;2.92;;;11.90;42.50;;;;;;5036439;28;20077;-68
2022/11/21 11:13:32;;;;;;;9.63;3.38;;;11.80;42.90;;;;;;5039382;28;20135;-68
2022/11/21 11:16:10;;;;;;;7.75;2.75;;;11.70;43.20;;;;;;5040681;28;20200;-68
2022/11/21 11:18:54;;;;;;;11.93;3.35;;;11.70;43.50;;;;;;5043610;28;20082;-67
2022/11/21 11:21:44;;;;;;;10.20;3.25;;;11.60;44.20;;;;;;5018124;28;20097;-67
2022/11/21 11:24:13;;;;;;;8.85;3.08;;;11.60;43.60;;;;;;5041024;28;20073;-64
2022/11/21 11:26:50;;;;;;;11.82;3.10;;;11.60;44.20;;;;;;5035646;28;20085;-68
2022/11/21 11:29:48;;;;;;;6.88;2.83;;;11.50;45.30;;;;;;5042366;28;20523;-68
2022/11/21 11:32:19;;;;;;;9.57;3.60;;;11.50;45.40;;;;;;5035872;28;20105;-68
2022/11/21 11:34:59;;;;;;;9.85;3.25;;;11.30;45.50;;;;;;5042309;28;20105;-67
2022/11/21 11:37:39;;;;;;;10.93;3.58;;;11.30;45.40;;;;;;5040016;28;20157;-68
2022/11/21 11:40:20;;;;;;;9.55;3.17;;;11.30;45.40;;;;;;5047577;28;20074;-67
2022/11/21 11:48:40;;;;;;;9.82;3.97;;;11.20;45.60;;;;;;5041973;28;20109;-67
2022/11/21 11:51:20;;;;;;;11.40;3.65;;;11.20;45.30;;;;;;5034729;28;20550;-68
2022/11/21 11:53:52;;;;;;;13.35;3.92;;;11.10;45.50;;;;;;5041884;28;20085;-68
2022/11/21 11:56:28;;;;;;;13.48;3.38;;;11.10;46.40;;;;;;5044197;28;20066;-69
2022/11/21 11:59:12;;;;;;;7.70;3.60;;;11.10;46.90;;;;;;5039788;28;20085;-68
2022/11/21 12:02:02;;;;;;;14.05;3.80;;;11.10;46.70;;;;;;5042849;28;20558;-67
2022/11/21 12:04:39;;;;;;;6.60;3.15;;;11.10;46.80;;;;;;5039461;28;20508;-67
2022/11/21 12:07:32;;;;;;;9.65;2.80;;;11.10;46.50;;;;;;5037309;28;20465;-69
2022/11/21 12:10:03;;;;;;;11.43;3.28;;;11.00;46.20;;;;;;5029197;28;20574;-69
2022/11/21 12:12:41;;;;;;;13.52;3.08;;;11.00;46.20;;;;;;5037321;28;20136;-68
2022/11/21 12:18:19;;;;;;;7.15;2.80;;;11.00;45.30;;;;;;5037100;28;20506;-69
2022/11/21 12:21:17;;;;;;;12.40;3.50;;;11.00;46.00;;;;;;5037123;28;20195;-66
2022/11/21 12:23:52;;;;;;;12.25;2.63;;;11.00;46.50;;;;;;5041194;28;20085;-68
2022/11/21 12:26:43;;;;;;;10.68;2.50;;;11.00;46.40;;;;;;5033099;28;20077;-68
2022/11/21 12:29:27;;;;;;;6.75;2.40;;;11.00;46.00;;;;;;5037005;28;20074;-67
2022/11/21 12:31:59;;;;;;;14.32;2.78;;;10.90;45.90;;;;;;5036072;28;20077;-68
2022/11/21 12:34:38;;;;;;;10.10;2.95;;;10.90;46.60;;;;;;5045065;28;20089;-67
2022/11/21 12:37:38;;;;;;;12.10;3.15;;;10.90;46.90;;;;;;5040804;28;20097;-69
2022/11/21 12:40:22;;;;;;;8.93;2.67;;;11.00;47.00;;;;;;5044739;28;20548;-69
2022/11/21 12:43:24;;;;;;;20.38;3.00;;;10.90;46.70;;;;;;5042743;28;20553;-68
2022/11/21 12:46:07;;;;;;;9.88;3.13;;;10.80;46.90;;;;;;5048423;28;20135;-67
2022/11/21 12:55:13;;;;;;;12.63;3.08;;;10.70;48.40;;;;;;5043136;28;20104;-67
2022/11/21 12:58:10;;;;;;;8.98;3.22;;;10.70;48.20;;;;;;5043786;28;20077;-69
2022/11/21 13:00:36;;;;;;;12.35;3.15;;;10.60;48.00;;;;;;5039333;28;20136;-68
2022/11/21 13:03:33;;;;;;;12.07;3.20;;;10.50;47.40;;;;;;5041054;28;20167;-69
2022/11/21 13:06:02;;;;;;;11.60;4.00;;;10.50;47.50;;;;;;5025247;28;20086;-68
2022/11/21 13:08:34;;;;;;;11.20;4.07;;;10.50;47.50;;;;;;5041268;28;20311;-68
2022/11/21 13:14:15;;;;;;;15.07;5.03;;;10.40;47.70;;;;;;5041752;28;20112;-68
2022/11/21 13:16:45;;;;;;;;;;;10.40;48.90;;;;;;5045056;28;20085;-68
2022/11/21 13:19:36;;;;;;;15.57;5.57;;;10.40;48.50;;;;;;5043172;28;19993;-70
2022/11/21 13:22:02;;;;;;;13.73;5.30;;;10.30;48.60;;;;;;5044501;28;20524;-69
2022/11/21 13:24:49;;;;;;;;;;;10.30;48.90;;;;;;5039253;28;20104;-67
2022/11/21 13:27:30;;;;;;;15.93;5.50;;;10.30;49.30;;;;;;5028209;28;19964;-68
2022/11/21 13:30:22;;;;;;;19.60;6.75;;;10.30;49.90;;;;;;5038217;28;20149;-69
2022/11/21 13:32:53;;;;;;;21.95;7.57;;;10.20;49.90;;;;;;5029034;28;20102;-67
2022/11/21 13:35:19;;;;;;;21.55;7.22;;;10.20;49.80;;;;;;5044770;28;20108;-67
2022/11/21 13:37:48;;;;;;;25.20;7.45;;;10.10;50.10;;;;;;5042433;28;20550;-69